sensor_id;sensor_type;location;lat;lon;timestamp;pressure;altitude;pressure_sealevel;temperature;humidity
4024;BME280;2026;51.002;13.668;2023-11-21T00:01:58;98406.66;;;8.18;76.77
4024;BME280;2026;51.002;13.668;2023-11-21T00:07:03;98403.81;;;8.19;76.74
4024;BME280;2026;51.002;13.668;2023-11-21T00:12:07;98401.19;;;8.26;76.57
4024;BME280;2026;51.002;13.668;2023-11-21T00:17:12;98406.22;;;8.14;77.42
4024;BME280;2026;51.002;13.668;2023-11-21T00:22:16;98409.28;;;8.11;77.34
4024;BME280;2026;51.002;13.668;2023-11-21T00:27:19;98407.84;;;8.02;77.67
4024;BME280;2026;51.002;13.668;2023-11-21T00:32:22;98403.81;;;8.19;76.72
4024;BME280;2026;51.002;13.668;2023-11-21T00:37:27;98419.56;;;8.12;76.99
4024;BME280;2026;51.002;13.668;2023-11-21T00:42:30;98419.81;;;8.18;76.72
4024;BME280;2026;51.002;13.668;2023-11-21T00:47:34;98431.91;;;7.99;77.87
4024;BME280;2026;51.002;13.668;2023-11-21T00:52:39;98423.84;;;8.13;77.40
4024;BME280;2026;51.002;13.668;2023-11-21T00:57:42;98428.09;;;8.15;77.00
4024;BME280;2026;51.002;13.668;2023-11-21T01:02:45;98428.50;;;8.18;76.93
4024;BME280;2026;51.002;13.668;2023-11-21T01:07:51;98431.13;;;8.05;77.69
4024;BME280;2026;51.002;13.668;2023-11-21T01:12:54;98435.78;;;8.03;77.45
4024;BME280;2026;51.002;13.668;2023-11-21T01:17:57;98442.84;;;8.09;77.55
4024;BME280;2026;51.002;13.668;2023-11-21T01:23:01;98445.66;;;8.07;77.91
4024;BME280;2026;51.002;13.668;2023-11-21T01:28:05;98446.09;;;8.04;77.46
4024;BME280;2026;51.002;13.668;2023-11-21T01:33:08;98448.75;;;8.11;77.69
4024;BME280;2026;51.002;13.668;2023-11-21T01:38:13;98449.38;;;8.26;76.45
4024;BME280;2026;51.002;13.668;2023-11-21T01:43:17;98441.44;;;8.06;77.33
4024;BME280;2026;51.002;13.668;2023-11-21T01:48:20;98440.59;;;7.99;77.24
4024;BME280;2026;51.002;13.668;2023-11-21T01:53:25;98447.69;;;8.05;76.83
4024;BME280;2026;51.002;13.668;2023-11-21T01:58:31;98444.28;;;8.11;76.43
4024;BME280;2026;51.002;13.668;2023-11-21T02:03:34;98436.97;;;8.00;76.87
4024;BME280;2026;51.002;13.668;2023-11-21T02:08:39;98443.69;;;8.09;76.15
4024;BME280;2026;51.002;13.668;2023-11-21T02:13:46;98439.81;;;8.12;75.83
4024;BME280;2026;51.002;13.668;2023-11-21T02:18:52;98444.06;;;8.00;76.33
4024;BME280;2026;51.002;13.668;2023-11-21T02:23:57;98446.03;;;7.91;76.55
4024;BME280;2026;51.002;13.668;2023-11-21T02:29:00;98459.81;;;7.93;76.53
4024;BME280;2026;51.002;13.668;2023-11-21T02:34:06;98447.28;;;8.02;76.03
4024;BME280;2026;51.002;13.668;2023-11-21T02:39:11;98455.00;;;8.10;75.96
4024;BME280;2026;51.002;13.668;2023-11-21T02:44:15;98458.78;;;7.94;76.02
4024;BME280;2026;51.002;13.668;2023-11-21T02:49:18;98456.19;;;8.01;75.85
4024;BME280;2026;51.002;13.668;2023-11-21T02:54:23;98462.06;;;7.96;75.45
4024;BME280;2026;51.002;13.668;2023-11-21T02:59:27;98460.97;;;7.77;76.70
4024;BME280;2026;51.002;13.668;2023-11-21T03:04:30;98466.47;;;7.89;76.13
4024;BME280;2026;51.002;13.668;2023-11-21T03:09:35;98473.53;;;7.82;76.49
4024;BME280;2026;51.002;13.668;2023-11-21T03:14:39;98470.28;;;7.80;76.41
4024;BME280;2026;51.002;13.668;2023-11-21T03:19:42;98470.19;;;7.60;77.07
4024;BME280;2026;51.002;13.668;2023-11-21T03:24:46;98471.66;;;7.69;76.99
4024;BME280;2026;51.002;13.668;2023-11-21T03:29:50;98469.03;;;7.75;76.20
4024;BME280;2026;51.002;13.668;2023-11-21T03:34:54;98473.09;;;7.71;76.12
4024;BME280;2026;51.002;13.668;2023-11-21T03:40:00;98481.94;;;7.64;76.82
4024;BME280;2026;51.002;13.668;2023-11-21T03:45:06;98478.31;;;7.30;78.15
4024;BME280;2026;51.002;13.668;2023-11-21T03:50:10;98482.94;;;7.28;78.06
4024;BME280;2026;51.002;13.668;2023-11-21T03:55:15;98476.28;;;7.25;78.37
4024;BME280;2026;51.002;13.668;2023-11-21T04:00:19;98493.72;;;7.39;77.60
4024;BME280;2026;51.002;13.668;2023-11-21T04:05:23;98486.53;;;7.48;76.91
4024;BME280;2026;51.002;13.668;2023-11-21T04:10:27;98476.44;;;7.52;76.97
4024;BME280;2026;51.002;13.668;2023-11-21T04:15:30;98489.50;;;7.38;77.54
4024;BME280;2026;51.002;13.668;2023-11-21T04:20:34;98485.25;;;7.37;77.70
4024;BME280;2026;51.002;13.668;2023-11-21T04:25:38;98491.41;;;7.51;77.24
4024;BME280;2026;51.002;13.668;2023-11-21T04:30:41;98496.41;;;7.46;77.29
4024;BME280;2026;51.002;13.668;2023-11-21T04:35:45;98493.63;;;7.54;77.09
4024;BME280;2026;51.002;13.668;2023-11-21T04:40:49;98504.78;;;7.56;76.70
4024;BME280;2026;51.002;13.668;2023-11-21T04:45:52;98513.84;;;7.54;77.02
4024;BME280;2026;51.002;13.668;2023-11-21T04:50:55;98515.66;;;7.53;77.27
4024;BME280;2026;51.002;13.668;2023-11-21T04:56:00;98517.72;;;7.58;77.44
4024;BME280;2026;51.002;13.668;2023-11-21T05:01:03;98522.19;;;7.64;76.73
4024;BME280;2026;51.002;13.668;2023-11-21T05:06:09;98510.88;;;7.64;76.82
4024;BME280;2026;51.002;13.668;2023-11-21T05:11:23;98521.72;;;7.54;77.14
4024;BME280;2026;51.002;13.668;2023-11-21T05:16:26;98526.72;;;7.42;77.63
4024;BME280;2026;51.002;13.668;2023-11-21T05:21:30;98537.22;;;7.42;77.89
4024;BME280;2026;51.002;13.668;2023-11-21T05:26:35;98542.94;;;7.52;77.36
4024;BME280;2026;51.002;13.668;2023-11-21T05:31:38;98540.34;;;7.59;77.38
4024;BME280;2026;51.002;13.668;2023-11-21T05:36:43;98542.34;;;7.50;77.57
4024;BME280;2026;51.002;13.668;2023-11-21T05:41:48;98545.00;;;7.57;77.12
4024;BME280;2026;51.002;13.668;2023-11-21T05:46:51;98548.78;;;7.48;77.50
4024;BME280;2026;51.002;13.668;2023-11-21T05:51:55;98547.97;;;7.47;77.37
4024;BME280;2026;51.002;13.668;2023-11-21T05:57:03;98553.47;;;7.52;77.41
4024;BME280;2026;51.002;13.668;2023-11-21T06:02:07;98559.63;;;7.38;77.80
4024;BME280;2026;51.002;13.668;2023-11-21T06:07:10;98552.84;;;7.50;77.17
4024;BME280;2026;51.002;13.668;2023-11-21T06:12:15;98565.66;;;7.32;77.58
4024;BME280;2026;51.002;13.668;2023-11-21T06:17:19;98584.72;;;7.41;77.39
4024;BME280;2026;51.002;13.668;2023-11-21T06:22:22;98568.78;;;7.42;77.40
4024;BME280;2026;51.002;13.668;2023-11-21T06:27:26;98575.94;;;7.55;77.05
4024;BME280;2026;51.002;13.668;2023-11-21T06:32:30;98584.31;;;7.37;77.45
4024;BME280;2026;51.002;13.668;2023-11-21T06:37:34;98582.16;;;7.47;77.51
4024;BME280;2026;51.002;13.668;2023-11-21T06:42:38;98594.19;;;7.35;77.88
4024;BME280;2026;51.002;13.668;2023-11-21T06:47:41;98585.63;;;7.54;77.16
4024;BME280;2026;51.002;13.668;2023-11-21T06:52:45;98598.94;;;7.53;77.03
4024;BME280;2026;51.002;13.668;2023-11-21T06:57:50;98589.28;;;7.53;77.37
4024;BME280;2026;51.002;13.668;2023-11-21T07:02:53;98598.28;;;7.44;77.70
4024;BME280;2026;51.002;13.668;2023-11-21T07:07:57;98604.13;;;7.39;78.53
4024;BME280;2026;51.002;13.668;2023-11-21T07:13:07;98608.66;;;7.52;78.04
4024;BME280;2026;51.002;13.668;2023-11-21T07:18:14;98604.81;;;7.48;78.99
4024;BME280;2026;51.002;13.668;2023-11-21T07:23:17;98615.47;;;7.40;78.95
4024;BME280;2026;51.002;13.668;2023-11-21T07:28:22;98621.34;;;7.42;79.66
4024;BME280;2026;51.002;13.668;2023-11-21T07:33:25;98624.63;;;7.51;79.20
4024;BME280;2026;51.002;13.668;2023-11-21T07:38:28;98634.47;;;7.70;78.11
4024;BME280;2026;51.002;13.668;2023-11-21T07:43:32;98637.88;;;7.64;78.35
4024;BME280;2026;51.002;13.668;2023-11-21T07:48:37;98646.41;;;7.66;78.86
4024;BME280;2026;51.002;13.668;2023-11-21T07:53:40;98641.53;;;7.63;78.88
4024;BME280;2026;51.002;13.668;2023-11-21T07:58:45;98647.91;;;7.82;78.57
4024;BME280;2026;51.002;13.668;2023-11-21T08:03:48;98652.88;;;7.70;79.01
4024;BME280;2026;51.002;13.668;2023-11-21T08:08:54;98652.13;;;7.76;78.99
4024;BME280;2026;51.002;13.668;2023-11-21T08:13:58;98652.13;;;7.76;79.37
4024;BME280;2026;51.002;13.668;2023-11-21T08:19:02;98653.78;;;7.84;78.92
4024;BME280;2026;51.002;13.668;2023-11-21T08:24:06;98653.72;;;7.78;79.47
4024;BME280;2026;51.002;13.668;2023-11-21T08:29:14;98662.88;;;7.82;79.41
4024;BME280;2026;51.002;13.668;2023-11-21T08:34:18;98665.88;;;7.79;79.97
4024;BME280;2026;51.002;13.668;2023-11-21T08:39:21;98662.78;;;7.68;80.80
4024;BME280;2026;51.002;13.668;2023-11-21T08:44:27;98658.75;;;8.01;80.08
4024;BME280;2026;51.002;13.668;2023-11-21T08:49:30;98667.28;;;8.03;80.39
4024;BME280;2026;51.002;13.668;2023-11-21T08:54:34;98668.56;;;7.85;80.72
4024;BME280;2026;51.002;13.668;2023-11-21T08:59:39;98667.19;;;7.89;80.50
4024;BME280;2026;51.002;13.668;2023-11-21T09:04:42;98678.56;;;7.68;81.10
4024;BME280;2026;51.002;13.668;2023-11-21T09:09:48;98680.97;;;7.63;82.35
4024;BME280;2026;51.002;13.668;2023-11-21T09:14:54;98691.47;;;7.63;81.97
4024;BME280;2026;51.002;13.668;2023-11-21T09:19:57;98692.97;;;7.51;82.87
4024;BME280;2026;51.002;13.668;2023-11-21T09:25:00;98699.78;;;7.67;82.35
4024;BME280;2026;51.002;13.668;2023-11-21T09:30:09;98699.91;;;7.58;82.21
4024;BME280;2026;51.002;13.668;2023-11-21T09:35:13;98695.66;;;7.57;82.22
4024;BME280;2026;51.002;13.668;2023-11-21T09:40:21;98707.44;;;7.40;83.11
4024;BME280;2026;51.002;13.668;2023-11-21T09:45:27;98712.66;;;6.97;84.92
4024;BME280;2026;51.002;13.668;2023-11-21T09:50:33;98709.06;;;7.19;84.38
4024;BME280;2026;51.002;13.668;2023-11-21T09:55:37;98708.06;;;7.42;83.34
4024;BME280;2026;51.002;13.668;2023-11-21T10:00:45;98731.03;;;6.31;86.64
4024;BME280;2026;51.002;13.668;2023-11-21T10:05:50;98739.44;;;5.88;87.86
4024;BME280;2026;51.002;13.668;2023-11-21T10:10:55;98751.31;;;5.99;86.33
4024;BME280;2026;51.002;13.668;2023-11-21T10:16:00;98754.50;;;5.48;86.90
4024;BME280;2026;51.002;13.668;2023-11-21T10:21:07;98754.78;;;5.53;86.41
4024;BME280;2026;51.002;13.668;2023-11-21T10:26:11;98769.59;;;6.07;84.69
4024;BME280;2026;51.002;13.668;2023-11-21T10:31:33;98774.66;;;5.16;86.67
4024;BME280;2026;51.002;13.668;2023-11-21T10:36:38;98785.34;;;5.84;85.45
4024;BME280;2026;51.002;13.668;2023-11-21T10:41:41;98791.59;;;5.60;84.72
4024;BME280;2026;51.002;13.668;2023-11-21T10:46:45;98791.78;;;4.95;87.46
4024;BME280;2026;51.002;13.668;2023-11-21T10:51:53;98803.00;;;4.65;88.53
4024;BME280;2026;51.002;13.668;2023-11-21T10:56:57;98802.88;;;4.97;88.17
4024;BME280;2026;51.002;13.668;2023-11-21T11:02:10;98812.72;;;4.39;89.61
4024;BME280;2026;51.002;13.668;2023-11-21T11:07:26;98819.75;;;4.39;87.68
4024;BME280;2026;51.002;13.668;2023-11-21T11:12:29;98825.47;;;4.01;88.21
4024;BME280;2026;51.002;13.668;2023-11-21T11:17:34;98836.91;;;4.09;87.35
4024;BME280;2026;51.002;13.668;2023-11-21T11:22:40;98841.50;;;3.90;87.48
4024;BME280;2026;51.002;13.668;2023-11-21T11:27:54;98843.94;;;4.24;86.21
4024;BME280;2026;51.002;13.668;2023-11-21T11:33:06;98843.13;;;4.16;86.75
4024;BME280;2026;51.002;13.668;2023-11-21T11:38:11;98853.75;;;3.90;86.09
4024;BME280;2026;51.002;13.668;2023-11-21T11:43:24;98856.19;;;3.91;84.70
4024;BME280;2026;51.002;13.668;2023-11-21T11:48:29;98867.47;;;3.92;86.22
4024;BME280;2026;51.002;13.668;2023-11-21T11:53:35;98863.19;;;3.58;87.05
4024;BME280;2026;51.002;13.668;2023-11-21T11:58:39;98864.09;;;3.40;87.23
4024;BME280;2026;51.002;13.668;2023-11-21T12:04:23;98868.53;;;3.48;87.38
4024;BME280;2026;51.002;13.668;2023-11-21T12:09:33;98868.84;;;3.45;87.44
4024;BME280;2026;51.002;13.668;2023-11-21T12:14:37;98874.88;;;3.45;87.02
4024;BME280;2026;51.002;13.668;2023-11-21T12:19:41;98883.75;;;3.53;86.44
4024;BME280;2026;51.002;13.668;2023-11-21T12:24:45;98889.50;;;3.81;86.40
4024;BME280;2026;51.002;13.668;2023-11-21T12:29:48;98890.09;;;3.50;87.25
4024;BME280;2026;51.002;13.668;2023-11-21T12:34:53;98900.13;;;3.79;87.23
4024;BME280;2026;51.002;13.668;2023-11-21T12:39:56;98909.31;;;4.24;85.48
4024;BME280;2026;51.002;13.668;2023-11-21T12:45:18;98903.28;;;4.32;83.72
4024;BME280;2026;51.002;13.668;2023-11-21T12:50:23;98902.78;;;4.37;84.34
4024;BME280;2026;51.002;13.668;2023-11-21T12:55:31;98907.03;;;4.46;84.50
4024;BME280;2026;51.002;13.668;2023-11-21T13:00:37;98917.00;;;4.42;84.53
4024;BME280;2026;51.002;13.668;2023-11-21T13:05:43;98921.69;;;3.90;86.38
4024;BME280;2026;51.002;13.668;2023-11-21T13:10:50;98933.34;;;4.36;85.00
4024;BME280;2026;51.002;13.668;2023-11-21T13:15:55;98931.88;;;4.09;84.41
4024;BME280;2026;51.002;13.668;2023-11-21T13:21:03;98938.41;;;4.13;83.81
4024;BME280;2026;51.002;13.668;2023-11-21T13:26:11;98942.13;;;3.94;84.61
4024;BME280;2026;51.002;13.668;2023-11-21T13:31:16;98945.44;;;4.21;84.41
4024;BME280;2026;51.002;13.668;2023-11-21T13:36:30;98953.72;;;3.92;86.35
4024;BME280;2026;51.002;13.668;2023-11-21T13:41:35;98960.84;;;3.73;86.76
4024;BME280;2026;51.002;13.668;2023-11-21T13:46:40;98976.53;;;3.73;86.74
4024;BME280;2026;51.002;13.668;2023-11-21T13:51:45;98969.66;;;3.72;86.25
4024;BME280;2026;51.002;13.668;2023-11-21T13:56:52;98986.75;;;3.24;87.72
4024;BME280;2026;51.002;13.668;2023-11-21T14:01:57;98986.41;;;3.19;88.04
4024;BME280;2026;51.002;13.668;2023-11-21T14:07:04;98996.63;;;3.12;89.13
4024;BME280;2026;51.002;13.668;2023-11-21T14:12:22;99010.66;;;3.37;87.20
4024;BME280;2026;51.002;13.668;2023-11-21T14:17:25;99007.53;;;3.33;87.76
4024;BME280;2026;51.002;13.668;2023-11-21T14:22:30;99008.53;;;3.41;86.89
4024;BME280;2026;51.002;13.668;2023-11-21T14:27:33;99020.47;;;3.43;86.27
4024;BME280;2026;51.002;13.668;2023-11-21T14:32:37;99022.47;;;2.97;88.09
4024;BME280;2026;51.002;13.668;2023-11-21T14:37:42;99034.50;;;2.90;88.42
4024;BME280;2026;51.002;13.668;2023-11-21T14:42:46;99047.19;;;2.49;85.96
4024;BME280;2026;51.002;13.668;2023-11-21T14:47:49;99055.91;;;2.75;84.19
4024;BME280;2026;51.002;13.668;2023-11-21T14:52:57;99062.44;;;2.80;83.33
4024;BME280;2026;51.002;13.668;2023-11-21T14:58:01;99066.91;;;2.51;85.22
4024;BME280;2026;51.002;13.668;2023-11-21T15:03:06;99079.56;;;2.46;85.04
4024;BME280;2026;51.002;13.668;2023-11-21T15:08:13;99083.53;;;2.50;84.80
4024;BME280;2026;51.002;13.668;2023-11-21T15:13:23;99093.41;;;2.01;86.84
4024;BME280;2026;51.002;13.668;2023-11-21T15:18:29;99089.25;;;2.36;86.97
4024;BME280;2026;51.002;13.668;2023-11-21T15:23:33;99099.25;;;2.13;86.06
4024;BME280;2026;51.002;13.668;2023-11-21T15:28:37;99089.16;;;2.28;86.21
4024;BME280;2026;51.002;13.668;2023-11-21T15:33:40;99096.97;;;2.28;84.66
4024;BME280;2026;51.002;13.668;2023-11-21T15:38:45;99113.41;;;2.10;84.67
4024;BME280;2026;51.002;13.668;2023-11-21T15:43:48;99120.97;;;2.31;84.63
4024;BME280;2026;51.002;13.668;2023-11-21T15:48:52;99129.41;;;2.25;84.82
4024;BME280;2026;51.002;13.668;2023-11-21T15:53:57;99141.25;;;2.10;85.48
4024;BME280;2026;51.002;13.668;2023-11-21T15:59:01;99146.69;;;2.16;84.90
4024;BME280;2026;51.002;13.668;2023-11-21T16:04:04;99144.50;;;2.12;86.28
4024;BME280;2026;51.002;13.668;2023-11-21T16:09:10;99150.59;;;2.02;86.88
4024;BME280;2026;51.002;13.668;2023-11-21T16:14:22;99151.00;;;2.08;86.23
4024;BME280;2026;51.002;13.668;2023-11-21T16:19:28;99160.84;;;2.14;86.92
4024;BME280;2026;51.002;13.668;2023-11-21T16:24:33;99169.69;;;2.31;86.17
4024;BME280;2026;51.002;13.668;2023-11-21T16:29:36;99165.72;;;1.99;87.65
4024;BME280;2026;51.002;13.668;2023-11-21T16:34:40;99183.63;;;2.12;87.00
4024;BME280;2026;51.002;13.668;2023-11-21T16:39:45;99188.78;;;1.84;87.44
4024;BME280;2026;51.002;13.668;2023-11-21T16:44:49;99192.06;;;1.86;87.68
4024;BME280;2026;51.002;13.668;2023-11-21T16:49:54;99208.22;;;1.90;87.04
4024;BME280;2026;51.002;13.668;2023-11-21T16:54:59;99207.81;;;1.94;86.72
4024;BME280;2026;51.002;13.668;2023-11-21T17:00:03;99212.09;;;1.95;86.73
4024;BME280;2026;51.002;13.668;2023-11-21T17:05:08;99227.09;;;2.11;86.54
4024;BME280;2026;51.002;13.668;2023-11-21T17:10:14;99227.09;;;2.11;85.21
4024;BME280;2026;51.002;13.668;2023-11-21T17:15:18;99231.41;;;1.83;86.50
4024;BME280;2026;51.002;13.668;2023-11-21T17:20:23;99236.50;;;1.75;86.85
4024;BME280;2026;51.002;13.668;2023-11-21T17:25:29;99243.03;;;1.98;86.41
4024;BME280;2026;51.002;13.668;2023-11-21T17:30:32;99248.84;;;1.43;86.19
4024;BME280;2026;51.002;13.668;2023-11-21T17:35:35;99255.28;;;1.59;85.98
4024;BME280;2026;51.002;13.668;2023-11-21T17:40:40;99264.75;;;1.60;85.50
4024;BME280;2026;51.002;13.668;2023-11-21T17:45:45;99270.38;;;1.55;86.02
4024;BME280;2026;51.002;13.668;2023-11-21T17:50:48;99282.31;;;1.68;85.26
4024;BME280;2026;51.002;13.668;2023-11-21T17:55:53;99288.59;;;1.65;85.02
4024;BME280;2026;51.002;13.668;2023-11-21T18:00:57;99292.16;;;1.93;84.42
4024;BME280;2026;51.002;13.668;2023-11-21T18:06:00;99289.72;;;1.62;85.32
4024;BME280;2026;51.002;13.668;2023-11-21T18:11:05;99298.06;;;1.46;85.79
4024;BME280;2026;51.002;13.668;2023-11-21T18:16:08;99296.69;;;1.52;85.75
4024;BME280;2026;51.002;13.668;2023-11-21T18:21:11;99305.06;;;1.56;85.81
4024;BME280;2026;51.002;13.668;2023-11-21T18:26:18;99323.28;;;1.65;84.81
4024;BME280;2026;51.002;13.668;2023-11-21T18:31:22;99328.06;;;1.51;85.45
4024;BME280;2026;51.002;13.668;2023-11-21T18:36:25;99341.91;;;1.51;85.31
4024;BME280;2026;51.002;13.668;2023-11-21T18:41:29;99353.59;;;1.76;85.42
4024;BME280;2026;51.002;13.668;2023-11-21T18:46:35;99373.97;;;1.52;85.98
4024;BME280;2026;51.002;13.668;2023-11-21T18:51:39;99369.56;;;1.33;84.09
4024;BME280;2026;51.002;13.668;2023-11-21T18:56:43;99377.06;;;1.16;84.83
4024;BME280;2026;51.002;13.668;2023-11-21T19:01:46;99388.25;;;1.47;83.99
4024;BME280;2026;51.002;13.668;2023-11-21T19:06:50;99384.66;;;0.98;85.72
4024;BME280;2026;51.002;13.668;2023-11-21T19:11:55;99381.06;;;1.30;85.57
4024;BME280;2026;51.002;13.668;2023-11-21T19:16:59;99391.44;;;1.71;84.64
4024;BME280;2026;51.002;13.668;2023-11-21T19:22:03;99401.84;;;1.90;82.19
4024;BME280;2026;51.002;13.668;2023-11-21T19:27:07;99405.28;;;1.31;84.02
4024;BME280;2026;51.002;13.668;2023-11-21T19:32:10;99416.13;;;1.36;84.57
4024;BME280;2026;51.002;13.668;2023-11-21T19:37:13;99425.31;;;1.80;82.67
4024;BME280;2026;51.002;13.668;2023-11-21T19:42:18;99421.28;;;1.57;82.53
4024;BME280;2026;51.002;13.668;2023-11-21T19:47:22;99431.22;;;1.92;81.49
4024;BME280;2026;51.002;13.668;2023-11-21T19:52:25;99442.53;;;1.21;84.10
4024;BME280;2026;51.002;13.668;2023-11-21T19:57:30;99447.22;;;1.27;84.13
4024;BME280;2026;51.002;13.668;2023-11-21T20:02:33;99464.78;;;1.04;84.68
4024;BME280;2026;51.002;13.668;2023-11-21T20:07:36;99474.84;;;1.19;83.75
4024;BME280;2026;51.002;13.668;2023-11-21T20:12:41;99483.56;;;0.87;85.57
4024;BME280;2026;51.002;13.668;2023-11-21T20:17:55;99479.97;;;0.78;83.72
4024;BME280;2026;51.002;13.668;2023-11-21T20:22:59;99488.91;;;0.85;84.64
4024;BME280;2026;51.002;13.668;2023-11-21T20:28:04;99494.78;;;0.87;84.55
4024;BME280;2026;51.002;13.668;2023-11-21T20:33:09;99507.59;;;0.79;85.14
4024;BME280;2026;51.002;13.668;2023-11-21T20:38:12;99517.41;;;0.87;84.56
4024;BME280;2026;51.002;13.668;2023-11-21T20:43:17;99532.22;;;0.75;84.22
4024;BME280;2026;51.002;13.668;2023-11-21T20:48:20;99541.63;;;0.87;84.31
4024;BME280;2026;51.002;13.668;2023-11-21T20:53:24;99540.06;;;0.64;85.50
4024;BME280;2026;51.002;13.668;2023-11-21T20:58:28;99541.94;;;0.94;83.92
4024;BME280;2026;51.002;13.668;2023-11-21T21:03:31;99549.91;;;0.60;85.43
4024;BME280;2026;51.002;13.668;2023-11-21T21:08:35;99551.34;;;0.85;84.78
4024;BME280;2026;51.002;13.668;2023-11-21T21:13:40;99545.31;;;0.52;85.26
4024;BME280;2026;51.002;13.668;2023-11-21T21:18:44;99557.97;;;0.13;87.17
4024;BME280;2026;51.002;13.668;2023-11-21T21:23:48;99566.31;;;0.28;86.48
4024;BME280;2026;51.002;13.668;2023-11-21T21:28:54;99574.69;;;0.32;85.23
4024;BME280;2026;51.002;13.668;2023-11-21T21:33:58;99573.91;;;-0.03;86.42
4024;BME280;2026;51.002;13.668;2023-11-21T21:39:01;99578.13;;;0.21;86.06
4024;BME280;2026;51.002;13.668;2023-11-21T21:44:06;99598.63;;;0.58;83.60
4024;BME280;2026;51.002;13.668;2023-11-21T21:49:09;99607.91;;;-0.06;86.08
4024;BME280;2026;51.002;13.668;2023-11-21T21:54:13;99601.66;;;-0.14;86.39
4024;BME280;2026;51.002;13.668;2023-11-21T21:59:17;99611.44;;;0.16;85.78
4024;BME280;2026;51.002;13.668;2023-11-21T22:04:21;99621.34;;;0.33;85.56
4024;BME280;2026;51.002;13.668;2023-11-21T22:09:24;99632.94;;;-0.16;84.14
4024;BME280;2026;51.002;13.668;2023-11-21T22:14:29;99623.84;;;-0.33;85.03
4024;BME280;2026;51.002;13.668;2023-11-21T22:19:32;99628.91;;;-0.20;84.69
4024;BME280;2026;51.002;13.668;2023-11-21T22:24:37;99627.72;;;0.18;84.37
4024;BME280;2026;51.002;13.668;2023-11-21T22:29:41;99627.94;;;0.38;83.59
4024;BME280;2026;51.002;13.668;2023-11-21T22:34:44;99631.13;;;0.52;83.79
4024;BME280;2026;51.002;13.668;2023-11-21T22:39:47;99633.53;;;0.10;84.45
4024;BME280;2026;51.002;13.668;2023-11-21T22:44:52;99632.56;;;0.11;85.02
4024;BME280;2026;51.002;13.668;2023-11-21T22:49:55;99634.59;;;-0.26;84.97
4024;BME280;2026;51.002;13.668;2023-11-21T22:54:58;99628.56;;;-0.38;85.73
4024;BME280;2026;51.002;13.668;2023-11-21T23:00:03;99639.31;;;0.03;84.78
4024;BME280;2026;51.002;13.668;2023-11-21T23:05:13;99636.56;;;-0.30;85.10
4024;BME280;2026;51.002;13.668;2023-11-21T23:10:17;99646.94;;;-0.30;85.56
4024;BME280;2026;51.002;13.668;2023-11-21T23:15:21;99644.84;;;-0.36;85.79
4024;BME280;2026;51.002;13.668;2023-11-21T23:20:25;99650.16;;;-0.15;84.58
4024;BME280;2026;51.002;13.668;2023-11-21T23:25:28;99654.91;;;0.03;84.51
4024;BME280;2026;51.002;13.668;2023-11-21T23:30:33;99662.53;;;-0.30;86.75
4024;BME280;2026;51.002;13.668;2023-11-21T23:35:36;99662.31;;;-0.27;87.34
4024;BME280;2026;51.002;13.668;2023-11-21T23:40:40;99681.59;;;-0.53;87.27
4024;BME280;2026;51.002;13.668;2023-11-21T23:45:46;99687.72;;;-0.66;87.82
4024;BME280;2026;51.002;13.668;2023-11-21T23:50:49;99688.34;;;-0.51;86.11
4024;BME280;2026;51.002;13.668;2023-11-21T23:55:52;99694.44;;;-0.63;86.81
